createdAt,value
2017-09-03T03:16:20.302Z,42.65
2017-09-03T03:18:47.152Z,43.08
2017-09-03T08:56:12.285Z,31.28
2017-09-03T09:18:20.626Z,32.08
2017-09-03T09:20:46.911Z,31.52
2017-09-03T09:23:13.194Z,30.91
2017-09-03T09:25:39.494Z,30.72
2017-09-03T09:28:07.606Z,30.34
2017-09-03T09:30:34.072Z,29.72
2017-09-03T09:33:08.525Z,29.82
2017-09-03T09:35:34.920Z,30.19
2017-09-03T09:38:04.201Z,30.69
2017-09-03T09:40:32.706Z,30.02
2017-09-03T09:42:59.049Z,30.07
2017-09-03T09:45:30.750Z,29.53
2017-09-03T09:47:57.373Z,29.80
2017-09-03T09:50:25.971Z,29.98
2017-09-03T09:52:52.216Z,29.76
2017-09-03T09:55:19.798Z,29.65
2017-09-03T09:57:49.270Z,29.37
2017-09-03T10:00:15.695Z,29.17
2017-09-03T10:02:42.148Z,28.65
2017-09-03T10:05:09.437Z,28.83
2017-09-03T10:07:35.875Z,29.58
2017-09-03T10:10:02.345Z,28.56
2017-09-03T10:12:30.459Z,28.12
2017-09-03T10:14:59.953Z,28.14
2017-09-03T10:17:26.307Z,27.85
2017-09-03T10:20:00.589Z,28.52
2017-09-03T10:22:28.026Z,29.12
2017-09-03T10:24:54.419Z,29.71
2017-09-03T10:27:20.880Z,30.44
2017-09-03T10:29:48.144Z,30.33
2017-09-03T10:32:21.487Z,29.18
2017-09-03T10:34:48.977Z,28.63
2017-09-03T10:37:15.424Z,27.80
2017-09-03T10:45:12.925Z,27.99
2017-09-03T10:47:41.648Z,29.24
2017-09-03T10:50:11.288Z,28.99
2017-09-03T10:55:26.588Z,27.70
2017-09-03T10:57:53.408Z,27.33
2017-09-03T11:03:05.052Z,27.70
2017-09-03T11:05:31.307Z,28.13
2017-09-03T11:07:58.917Z,27.96
2017-09-03T11:12:56.089Z,36.89
2017-09-03T11:15:23.442Z,40.00
2017-09-03T11:17:49.967Z,41.78
2017-09-03T11:20:16.489Z,43.19
2017-09-03T11:22:42.860Z,43.74
2017-09-03T11:25:16.491Z,43.60
2017-09-03T11:27:42.918Z,42.29
2017-09-03T11:30:20.377Z,40.58
2017-09-03T11:32:47.769Z,39.89
2017-09-03T11:35:16.180Z,39.43
2017-09-03T11:37:42.529Z,39.62
2017-09-03T11:40:10.042Z,38.62
2017-09-03T11:42:37.252Z,36.95
2017-09-03T11:45:03.669Z,36.20
2017-09-03T11:47:30.056Z,34.66
2017-09-03T11:49:56.799Z,33.70
2017-09-03T11:52:23.122Z,33.09
2017-09-03T11:54:49.419Z,33.54
2017-09-03T11:57:16.870Z,32.89
2017-09-03T11:59:43.559Z,32.71
2017-09-03T12:02:10.214Z,33.95
2017-09-03T12:04:36.630Z,33.88
2017-09-03T12:07:02.983Z,32.34
2017-09-03T12:09:32.470Z,32.86
2017-09-03T12:11:58.865Z,32.08
2017-09-03T12:14:25.488Z,32.16
2017-09-03T12:16:52.749Z,32.73
2017-09-03T12:19:19.264Z,32.23
2017-09-03T12:21:46.597Z,32.45
2017-09-03T12:24:12.935Z,33.92
2017-09-03T12:26:40.194Z,33.00
2017-09-03T12:29:06.626Z,32.49
2017-09-03T12:31:33.966Z,31.55
2017-09-03T12:36:31.672Z,29.94
2017-09-03T12:38:59.038Z,30.53
2017-09-03T12:41:25.452Z,31.43
2017-09-03T12:43:55.312Z,31.35
2017-09-03T12:46:21.672Z,29.67
2017-09-03T12:48:48.527Z,30.46
2017-09-03T12:51:14.989Z,30.92
2017-09-03T12:53:41.622Z,31.70
2017-09-03T12:58:50.450Z,32.08
2017-09-03T13:01:19.627Z,31.96
2017-09-03T13:03:45.970Z,32.59
2017-09-03T13:06:12.290Z,31.93
2017-09-03T13:08:38.644Z,32.51
2017-09-03T13:11:04.979Z,31.28
2017-09-03T13:13:31.392Z,31.29
2017-09-03T13:15:57.888Z,31.07
2017-09-03T13:18:24.183Z,31.15
2017-09-03T13:20:50.545Z,31.96
2017-09-03T13:23:17.051Z,30.58
2017-09-03T13:25:43.311Z,29.90
2017-09-03T13:28:10.567Z,30.01
2017-09-03T13:30:36.879Z,28.88
2017-09-03T13:33:03.461Z,28.74
2017-09-03T13:35:30.595Z,28.27
2017-09-03T13:37:56.881Z,28.19
2017-09-03T13:40:23.152Z,28.23
2017-09-03T13:42:49.428Z,28.72
2017-09-03T13:45:15.853Z,28.80
2017-09-03T13:47:42.934Z,28.76
2017-09-03T13:50:09.299Z,29.21
2017-09-03T13:52:35.599Z,28.94
2017-09-03T13:55:01.893Z,28.75
2017-09-03T13:57:28.191Z,28.72
2017-09-03T13:59:54.499Z,29.05
2017-09-03T14:02:20.792Z,28.58
2017-09-03T14:04:47.549Z,27.77
2017-09-03T14:07:13.894Z,28.85
2017-09-03T14:09:41.146Z,29.09
2017-09-03T14:12:07.496Z,27.99
2017-09-03T14:14:33.798Z,28.06
2017-09-03T14:16:59.995Z,28.38
2017-09-03T14:19:26.182Z,29.19
2017-09-03T14:21:52.381Z,30.31
2017-09-03T14:24:18.615Z,29.37
2017-09-03T14:26:44.840Z,29.49
2017-09-03T14:29:11.078Z,28.95
2017-09-03T14:31:37.336Z,29.37
2017-09-03T14:40:47.718Z,31.77
2017-09-03T14:43:13.944Z,32.23
2017-09-03T14:45:40.173Z,32.53
2017-09-03T14:48:06.400Z,32.90
2017-09-03T14:50:32.634Z,33.53
2017-09-03T14:52:58.867Z,33.30
2017-09-03T14:55:25.106Z,33.48
2017-09-03T14:57:51.338Z,32.87
2017-09-03T15:00:17.679Z,31.93
2017-09-03T15:02:43.904Z,31.96
2017-09-03T15:05:10.108Z,33.48
2017-09-03T15:07:36.357Z,32.11
2017-09-03T15:10:02.956Z,31.63
2017-09-03T15:12:29.227Z,31.54
2017-09-03T15:14:55.447Z,31.12
2017-09-03T15:17:21.681Z,31.36
2017-09-03T15:19:47.897Z,32.46
2017-09-03T15:22:14.120Z,31.64
2017-09-03T15:24:40.345Z,31.71
2017-09-03T15:27:06.650Z,33.27
2017-09-03T15:29:33.087Z,33.00
2017-09-03T15:31:59.373Z,32.45
2017-09-03T15:34:25.660Z,32.62
2017-09-03T15:36:52.306Z,33.19
2017-09-03T15:39:18.604Z,33.82
2017-09-03T15:41:44.917Z,33.83
2017-09-03T15:44:16.294Z,34.12
2017-09-03T15:46:42.627Z,34.63
2017-09-03T15:49:08.898Z,35.18
2017-09-03T15:51:35.206Z,36.78
2017-09-03T15:54:01.600Z,36.98
2017-09-03T15:56:27.934Z,37.05
2017-09-03T16:01:47.460Z,38.75
2017-09-03T16:04:13.881Z,39.04
2017-09-03T16:06:40.281Z,39.93
2017-09-03T16:09:06.740Z,41.40
2017-09-03T16:11:33.133Z,42.64
2017-09-03T16:13:59.446Z,44.02
2017-09-03T16:16:25.783Z,45.36
2017-09-03T16:18:52.065Z,46.16
2017-09-03T16:21:18.490Z,46.35
2017-09-03T16:23:46.779Z,47.25
2017-09-03T16:26:13.073Z,48.03
2017-09-03T16:28:39.389Z,48.28
2017-09-03T16:31:06.199Z,48.77
2017-09-03T16:33:32.579Z,49.05
2017-09-03T16:36:00.198Z,49.55
2017-09-03T16:38:26.762Z,50.18
2017-09-03T16:43:25.492Z,50.49
2017-09-03T16:45:52.031Z,50.93
2017-09-03T16:48:18.382Z,51.26
2017-09-03T16:50:44.643Z,51.49
2017-09-03T16:53:10.954Z,51.99
2017-09-03T16:55:37.277Z,52.16
2017-09-03T16:58:03.640Z,51.97
2017-09-03T17:00:29.968Z,52.00
2017-09-03T17:02:56.339Z,52.02
2017-09-03T17:05:22.668Z,51.82
2017-09-03T17:07:48.950Z,51.93
2017-09-03T17:10:15.201Z,52.14
2017-09-03T17:12:41.913Z,52.56
2017-09-03T17:15:08.358Z,52.58
2017-09-03T17:17:34.763Z,52.91
2017-09-03T17:20:01.630Z,52.86
2017-09-03T17:22:27.928Z,53.92
2017-09-03T17:25:05.410Z,54.66
2017-09-03T17:30:10.244Z,54.19
2017-09-03T17:32:36.508Z,54.80
2017-09-03T17:40:19.895Z,55.18
2017-09-03T17:42:47.119Z,55.10
2017-09-03T17:50:39.940Z,55.62
2017-09-03T17:53:07.256Z,56.09
2017-09-03T17:58:12.848Z,56.17
2017-09-03T18:03:30.997Z,57.45
2017-09-03T18:05:57.423Z,57.37
2017-09-03T18:08:23.676Z,57.31
2017-09-03T18:10:49.871Z,57.02
2017-09-03T18:13:16.060Z,57.32
2017-09-03T18:15:42.248Z,57.61
2017-09-03T18:18:08.405Z,55.48
2017-09-03T18:20:34.597Z,55.31
2017-09-03T18:23:00.845Z,56.37
2017-09-03T18:25:27.020Z,57.37
2017-09-03T18:27:53.273Z,58.70
2017-09-03T18:30:19.503Z,61.83
2017-09-03T18:32:45.805Z,64.29
2017-09-03T18:35:12.059Z,67.53
2017-09-03T18:37:38.294Z,70.41
2017-09-03T18:40:04.533Z,71.20
2017-09-03T18:42:30.755Z,72.17
2017-09-03T18:44:57.023Z,72.67
2017-09-03T18:47:23.389Z,72.97
2017-09-03T18:49:49.661Z,73.11
2017-09-03T18:52:15.893Z,73.37
2017-09-03T18:54:42.978Z,73.54
2017-09-03T18:57:09.285Z,74.09
2017-09-03T18:59:38.114Z,74.52
2017-09-03T19:02:04.511Z,74.68
2017-09-03T19:04:31.841Z,75.22
2017-09-03T19:06:58.235Z,75.70
2017-09-03T19:14:56.928Z,82.40
2017-09-03T19:17:23.129Z,84.36
2017-09-03T19:19:49.372Z,86.79
2017-09-03T19:22:15.604Z,87.15
2017-09-03T19:24:41.854Z,88.15
2017-09-03T19:27:08.055Z,88.80
2017-09-03T19:29:34.318Z,88.98
2017-09-03T19:32:00.655Z,88.12
2017-09-03T19:34:27.060Z,87.27
2017-09-03T19:36:53.396Z,88.26
2017-09-03T19:39:19.766Z,87.13
2017-09-03T19:41:46.127Z,88.97
2017-09-03T19:44:12.833Z,88.11
2017-09-03T19:46:41.041Z,87.76
2017-09-03T19:56:20.432Z,87.93
2017-09-03T20:02:57.683Z,90.46
2017-09-03T20:05:23.891Z,90.87
2017-09-03T20:07:50.137Z,91.12
2017-09-03T20:10:16.362Z,90.81
2017-09-03T20:12:42.546Z,90.57
2017-09-03T20:15:08.837Z,90.71
2017-09-03T20:27:32.789Z,90.46
2017-09-03T21:13:55.150Z,89.19
2017-09-03T21:16:21.445Z,89.33
2017-09-03T21:18:47.781Z,89.06
2017-09-03T21:21:14.021Z,89.58
2017-09-03T21:23:40.238Z,89.98
2017-09-03T21:26:06.510Z,89.49
2017-09-03T21:28:32.708Z,89.21
2017-09-03T21:30:59.057Z,89.40
2017-09-03T21:33:25.297Z,89.22
2017-09-03T21:35:51.496Z,89.14
2017-09-03T21:38:17.745Z,89.00
2017-09-03T21:40:43.960Z,89.31
2017-09-03T21:43:10.191Z,89.07
2017-09-03T21:45:36.468Z,88.67
2017-09-03T21:56:56.170Z,89.96
2017-09-03T21:59:22.404Z,90.28
2017-09-03T22:01:48.617Z,89.70
2017-09-03T22:04:14.793Z,89.57
2017-09-03T22:06:40.984Z,89.17
2017-09-03T22:09:07.195Z,89.08
2017-09-03T22:11:33.425Z,89.21
2017-09-03T22:13:59.666Z,88.87
2017-09-03T22:16:25.887Z,88.78
2017-09-03T22:18:52.124Z,88.42
2017-09-03T22:21:18.370Z,88.42
2017-09-03T22:23:44.574Z,89.00
2017-09-03T22:26:10.805Z,89.11
2017-09-03T22:28:37.044Z,89.23
2017-09-03T22:31:03.258Z,89.50
2017-09-03T22:33:29.510Z,89.19
2017-09-03T22:35:55.731Z,89.39
2017-09-03T22:38:21.967Z,88.92
2017-09-03T22:40:48.190Z,88.76
2017-09-03T22:43:14.426Z,88.53
2017-09-03T22:45:40.674Z,88.90
2017-09-03T22:48:06.873Z,88.69
2017-09-03T22:50:33.095Z,88.32
2017-09-03T22:52:59.338Z,88.00
2017-09-03T22:55:25.578Z,87.90
2017-09-03T22:57:51.790Z,87.95
2017-09-03T23:00:18.028Z,88.29
2017-09-03T23:02:44.259Z,88.63
2017-09-03T23:05:10.492Z,89.05
2017-09-03T23:07:36.729Z,88.87
2017-09-03T23:10:02.961Z,89.17
2017-09-03T23:12:29.192Z,89.25
2017-09-03T23:14:55.418Z,88.99
2017-09-03T23:17:21.653Z,88.67
2017-09-03T23:19:47.869Z,88.12
2017-09-03T23:22:14.102Z,87.86
2017-09-03T23:24:40.338Z,87.63
2017-09-03T23:27:06.551Z,87.14
2017-09-03T23:29:32.797Z,87.57
2017-09-03T23:31:59.032Z,88.42
2017-09-03T23:34:25.263Z,88.34
2017-09-03T23:36:51.492Z,88.42
2017-09-03T23:39:17.713Z,88.85
2017-09-03T23:41:43.943Z,89.04
2017-09-03T23:44:10.242Z,89.31
2017-09-03T23:46:36.507Z,89.30
2017-09-03T23:49:02.739Z,89.23
2017-09-03T23:51:28.969Z,87.35
2017-09-03T23:53:55.299Z,86.30
2017-09-03T23:56:21.569Z,86.85
2017-09-03T23:58:47.856Z,87.04
